createdAt,value
2022-11-05T03:28:46.934Z,98785.02
2022-11-05T03:31:14.181Z,98787.77
2022-11-05T03:33:41.942Z,98783.70
2022-11-05T03:36:14.269Z,98781.73
2022-11-05T03:38:42.687Z,98789.53
2022-11-05T03:41:11.176Z,98790.02
2022-11-05T03:43:40.987Z,98787.87
2022-11-05T03:46:15.414Z,98790.36
2022-11-05T03:48:45.455Z,98788.88
2022-11-05T03:51:19.262Z,98792.30
2022-11-05T03:58:20.679Z,98792.05
2022-11-05T04:00:48.526Z,98796.13
2022-11-05T04:03:15.725Z,98802.05
2022-11-05T04:05:42.754Z,98806.86
2022-11-05T04:08:28.657Z,98803.33
2022-11-05T04:11:14.324Z,98799.54
2022-11-05T04:13:41.506Z,98798.81
2022-11-05T04:16:34.862Z,98800.44
2022-11-05T04:19:02.121Z,98802.15
2022-11-05T04:21:48.150Z,98808.97
2022-11-05T04:24:15.171Z,98808.52
2022-11-05T04:26:43.947Z,98811.19
2022-11-05T04:29:30.048Z,98810.39
2022-11-05T04:31:57.332Z,98810.11
2022-11-05T04:34:24.778Z,98806.16
2022-11-05T04:36:52.605Z,98804.08
2022-11-05T04:39:19.961Z,98809.77
2022-11-05T04:41:50.182Z,98812.11
2022-11-05T04:44:17.470Z,98805.23
2022-11-05T04:46:44.684Z,98811.16
2022-11-05T04:49:12.046Z,98808.53
2022-11-05T04:51:39.290Z,98811.18
2022-11-05T04:54:06.446Z,98815.35
2022-11-05T04:56:33.751Z,98818.02
2022-11-05T04:59:00.953Z,98814.48
2022-11-05T05:01:28.163Z,98813.12
2022-11-05T05:03:55.419Z,98811.92
2022-11-05T05:06:22.912Z,98813.71
2022-11-05T05:08:51.287Z,98820.95
2022-11-05T05:11:20.096Z,98826.63
2022-11-05T05:13:48.041Z,98831.56
2022-11-05T05:16:25.637Z,98830.86
2022-11-05T05:18:52.995Z,98832.83
2022-11-05T05:21:40.684Z,98835.19
2022-11-05T05:24:16.864Z,98834.98
2022-11-05T05:26:45.478Z,98834.78
2022-11-05T05:29:13.059Z,98831.08
2022-11-05T05:31:40.380Z,98826.77
2022-11-05T05:34:08.033Z,98830.02
2022-11-05T05:36:35.030Z,98829.11
2022-11-05T05:39:02.342Z,98832.27
2022-11-05T05:41:29.442Z,98825.16
2022-11-05T05:43:56.640Z,98827.33
2022-11-05T05:46:23.904Z,98832.63
2022-11-05T05:48:51.893Z,98840.55
2022-11-05T05:51:19.424Z,98845.21
2022-11-05T05:53:46.680Z,98853.36
2022-11-05T05:56:15.310Z,98855.23
2022-11-05T05:58:42.616Z,98852.10
2022-11-05T06:01:18.280Z,98850.94
2022-11-05T06:03:46.357Z,98856.54
2022-11-05T06:06:14.398Z,98859.66
2022-11-05T06:08:42.068Z,98862.85
2022-11-05T06:11:09.481Z,98862.89
2022-11-05T06:13:37.119Z,98862.27
2022-11-05T06:16:05.830Z,98862.20
2022-11-05T06:18:33.514Z,98868.30
2022-11-05T06:21:11.634Z,98872.23
2022-11-05T06:23:39.656Z,98869.52
2022-11-05T06:26:14.397Z,98874.02
2022-11-05T06:28:42.421Z,98872.87
2022-11-05T06:31:10.598Z,98874.28
2022-11-05T06:33:37.764Z,98879.26
2022-11-05T06:36:05.754Z,98878.70
2022-11-05T06:38:34.273Z,98881.94
2022-11-05T06:41:07.184Z,98880.05
2022-11-05T06:43:37.263Z,98877.89
2022-11-05T06:46:05.454Z,98873.49
2022-11-05T06:48:32.603Z,98876.84
2022-11-05T06:50:59.781Z,98884.58
2022-11-05T06:53:27.207Z,98886.27
2022-11-05T06:55:54.348Z,98888.25
2022-11-05T06:58:21.520Z,98890.83
2022-11-05T07:00:48.808Z,98891.67
2022-11-05T07:03:16.244Z,98899.35
2022-11-05T07:05:45.895Z,98895.54
2022-11-05T07:08:13.047Z,98897.94
2022-11-05T07:10:40.172Z,98899.77
2022-11-05T07:13:08.649Z,98896.27
2022-11-05T07:15:36.848Z,98896.23
2022-11-05T07:18:04.540Z,98898.30
2022-11-05T07:20:34.228Z,98900.20
2022-11-05T07:23:06.590Z,98905.16
2022-11-05T07:25:34.085Z,98910.76
2022-11-05T07:28:01.641Z,98909.04
2022-11-05T07:30:29.430Z,98908.70
2022-11-05T07:32:56.799Z,98908.58
2022-11-05T07:35:24.155Z,98907.36
2022-11-05T07:37:52.385Z,98904.11
2022-11-05T07:40:19.829Z,98900.87
2022-11-05T07:42:52.083Z,98895.61
2022-11-05T07:45:19.365Z,98891.20
2022-11-05T07:47:51.228Z,98893.20
2022-11-05T07:50:19.425Z,98886.85
2022-11-05T07:52:46.754Z,98888.18
2022-11-05T07:55:14.074Z,98886.73
2022-11-05T07:57:48.832Z,98881.14
2022-11-05T08:00:18.458Z,98876.30
2022-11-05T08:03:06.873Z,98879.40
2022-11-05T08:05:39.499Z,98898.36
2022-11-05T08:08:08.284Z,98916.33
2022-11-05T08:10:36.134Z,98929.34
2022-11-05T08:13:03.184Z,98924.22
2022-11-05T08:15:30.279Z,98925.37
2022-11-05T08:18:01.176Z,98925.27
2022-11-05T08:20:28.521Z,98924.92
2022-11-05T08:22:56.431Z,98918.12
2022-11-05T08:25:23.728Z,98921.66
2022-11-05T08:28:01.377Z,98925.06
2022-11-05T08:30:28.882Z,98922.59
2022-11-05T08:33:07.395Z,98927.33
2022-11-05T08:35:35.899Z,98926.92
2022-11-05T08:38:04.769Z,98927.06
2022-11-05T08:40:33.995Z,98929.45
2022-11-05T08:43:02.841Z,98929.62
2022-11-05T08:45:30.112Z,98931.67
2022-11-05T08:48:15.137Z,98933.62
2022-11-05T08:50:42.284Z,98932.84
2022-11-05T08:53:09.729Z,98921.33
2022-11-05T08:55:38.666Z,98922.27
2022-11-05T08:58:07.788Z,98926.84
2022-11-05T09:00:36.256Z,98931.92
2022-11-05T09:03:04.982Z,98932.33
2022-11-05T09:05:32.806Z,98931.05
2022-11-05T09:08:01.603Z,98931.73
2022-11-05T09:10:29.158Z,98934.88
2022-11-05T09:12:56.405Z,98937.48
2022-11-05T09:15:24.645Z,98939.41
2022-11-05T09:17:51.751Z,98937.12
2022-11-05T09:20:18.958Z,98935.40
2022-11-05T09:22:46.995Z,98934.05
2022-11-05T09:25:16.056Z,98933.78
2022-11-05T09:27:43.857Z,98937.58
2022-11-05T09:30:12.434Z,98933.41
2022-11-05T09:32:39.753Z,98933.82
2022-11-05T09:35:07.752Z,98932.20
2022-11-05T09:37:36.312Z,98931.09
2022-11-05T09:40:03.982Z,98922.70
2022-11-05T09:42:39.772Z,98921.91
2022-11-05T09:45:20.733Z,98927.69
2022-11-05T09:47:57.034Z,98938.82
2022-11-05T09:50:35.830Z,98934.36
2022-11-05T09:53:03.159Z,98934.41
2022-11-05T09:55:34.374Z,98931.50
2022-11-05T09:58:06.849Z,98932.28
2022-11-05T10:00:34.012Z,98927.02
2022-11-05T10:03:07.090Z,98925.80
2022-11-05T10:05:34.387Z,98924.53
2022-11-05T10:08:11.660Z,98933.13
2022-11-05T10:10:42.769Z,98939.39
2022-11-05T10:13:25.592Z,98946.48
2022-11-05T10:15:58.952Z,98948.15
2022-11-05T10:18:33.144Z,98936.73
2022-11-05T10:21:00.357Z,98945.24
2022-11-05T10:23:27.808Z,98944.67
2022-11-05T10:26:02.477Z,98939.44
2022-11-05T10:28:30.846Z,98944.22
2022-11-05T10:31:00.001Z,98948.88
2022-11-05T10:33:35.347Z,98952.21
2022-11-05T10:36:08.236Z,98943.36
2022-11-05T10:38:35.336Z,98942.77
2022-11-05T10:41:02.629Z,98948.96
2022-11-05T10:43:46.571Z,98948.53
2022-11-05T10:46:32.622Z,98952.91
2022-11-05T10:49:18.964Z,98955.34
2022-11-05T10:51:47.240Z,98958.39
2022-11-05T10:54:18.597Z,98955.24
2022-11-05T10:56:46.000Z,98952.00
2022-11-05T10:59:39.471Z,98951.30
2022-11-05T11:02:26.163Z,98954.20
2022-11-05T11:04:53.707Z,98954.40
2022-11-05T11:07:23.100Z,98954.63
2022-11-05T11:09:50.888Z,98956.23
2022-11-05T11:12:22.214Z,98947.73
2022-11-05T11:15:13.622Z,98944.20
2022-11-05T11:17:40.777Z,98946.18
2022-11-05T11:20:26.493Z,98953.55
2022-11-05T11:23:01.169Z,98946.84
2022-11-05T11:25:48.379Z,98947.92
2022-11-05T11:28:29.774Z,98944.41
2022-11-05T11:31:05.526Z,98948.03
2022-11-05T11:33:32.695Z,98946.44
2022-11-05T11:36:00.322Z,98944.70
2022-11-05T11:38:30.615Z,98943.31
2022-11-05T11:41:20.165Z,98952.63
2022-11-05T11:43:47.387Z,98956.23
2022-11-05T11:46:18.011Z,98956.91
2022-11-05T11:48:47.737Z,98953.05
2022-11-05T11:51:28.808Z,98953.10
2022-11-05T11:54:00.074Z,98956.64
2022-11-05T11:56:27.831Z,98954.77
2022-11-05T11:59:01.651Z,98955.00
2022-11-05T12:02:03.939Z,98956.92
2022-11-05T12:04:52.290Z,98962.83
2022-11-05T12:07:53.505Z,98966.38
2022-11-05T12:10:46.597Z,98962.79
2022-11-05T12:13:24.467Z,98960.84
2022-11-05T12:15:56.325Z,98960.83
2022-11-05T12:18:43.642Z,98965.40
2022-11-05T12:21:41.039Z,98962.19
2022-11-05T12:24:21.348Z,98960.93
2022-11-05T12:26:55.785Z,98960.75
2022-11-05T12:29:36.137Z,98967.14
2022-11-05T12:32:13.253Z,98968.13
2022-11-05T12:34:50.097Z,98965.48
2022-11-05T12:37:22.472Z,98963.58
2022-11-05T12:40:17.789Z,98962.29
2022-11-05T12:43:03.593Z,98962.38
2022-11-05T12:46:05.051Z,98968.73
2022-11-05T12:48:58.896Z,98962.63
2022-11-05T12:51:54.034Z,98968.48
2022-11-05T12:54:40.206Z,98967.04
2022-11-05T12:57:09.240Z,98971.06
2022-11-05T12:59:42.892Z,98975.69
2022-11-05T13:02:48.247Z,98979.22
2022-11-05T13:05:42.523Z,98982.04
2022-11-05T13:08:12.688Z,98985.09
2022-11-05T13:10:42.086Z,98982.54
2022-11-05T13:13:19.337Z,98976.19
2022-11-05T13:16:09.836Z,98978.96
2022-11-05T13:19:03.812Z,98982.40
2022-11-05T13:21:31.174Z,98981.70
2022-11-05T13:24:03.841Z,98980.57
2022-11-05T13:26:54.443Z,98982.38
2022-11-05T13:29:44.530Z,98987.48
2022-11-05T13:32:38.824Z,98987.30
2022-11-05T13:35:08.996Z,98981.83
2022-11-05T13:38:01.188Z,98985.99
2022-11-05T13:41:13.076Z,98994.11
2022-11-05T13:43:48.109Z,98992.98
2022-11-05T13:46:54.787Z,98989.66
2022-11-05T13:49:47.434Z,98999.58
2022-11-05T13:52:32.201Z,98995.14
2022-11-05T13:55:34.167Z,98994.31
2022-11-05T13:58:05.205Z,98991.73
2022-11-05T14:00:39.684Z,98990.73
2022-11-05T14:03:14.497Z,98995.23
2022-11-05T14:05:42.215Z,98991.88
2022-11-05T14:08:16.786Z,98997.30
2022-11-05T14:10:45.632Z,99001.99
2022-11-05T14:13:25.373Z,99002.27
2022-11-05T14:16:04.506Z,99003.83
2022-11-05T14:18:38.106Z,99008.80
2022-11-05T14:21:06.694Z,99009.48
2022-11-05T14:23:39.265Z,99016.35
2022-11-05T14:26:24.637Z,99012.14
2022-11-05T14:29:15.387Z,99012.00
2022-11-05T14:32:10.502Z,99008.16
2022-11-05T14:35:04.526Z,99014.48
2022-11-05T14:38:01.480Z,99015.69
2022-11-05T14:40:37.262Z,99014.11
2022-11-05T14:43:19.533Z,99016.84
2022-11-05T14:45:57.536Z,99024.20
2022-11-05T14:48:49.263Z,99025.73
2022-11-05T14:51:26.067Z,99026.34
2022-11-05T14:54:27.705Z,99026.63
2022-11-05T14:57:00.213Z,99032.10
2022-11-05T14:59:28.859Z,99034.89
2022-11-05T15:01:57.571Z,99038.29
2022-11-05T15:04:37.900Z,99044.59
2022-11-05T15:07:06.381Z,99043.73
2022-11-05T15:09:45.512Z,99042.42
2022-11-05T15:12:22.594Z,99049.34
2022-11-05T15:15:05.123Z,99049.73
2022-11-05T15:17:40.808Z,99048.40
2022-11-05T15:20:15.428Z,99049.05
2022-11-05T15:22:44.915Z,99049.86
2022-11-05T15:25:21.973Z,99050.67
2022-11-05T15:28:05.805Z,99059.33
2022-11-05T15:30:33.366Z,99059.00
2022-11-05T15:33:20.938Z,99058.90
2022-11-05T15:35:48.452Z,99060.98
2022-11-05T15:38:34.960Z,99066.03
2022-11-05T15:41:07.337Z,99064.33
2022-11-05T15:43:34.888Z,99061.02
2022-11-05T15:46:06.861Z,99059.45
2022-11-05T15:48:34.857Z,99059.34
2022-11-05T15:51:02.377Z,99065.13
2022-11-05T15:56:52.806Z,99064.27
2022-11-05T15:59:21.580Z,99072.78
2022-11-05T16:01:56.881Z,99076.70
2022-11-05T16:04:29.603Z,99065.40
2022-11-05T16:07:00.607Z,99069.04
2022-11-05T16:09:29.904Z,99071.15
2022-11-05T16:12:19.005Z,99073.59
2022-11-05T16:15:05.099Z,99074.52
2022-11-05T16:17:50.928Z,99068.59
2022-11-05T16:20:33.623Z,99074.14
2022-11-05T16:23:03.801Z,99075.15
2022-11-05T16:25:41.440Z,99076.64
2022-11-05T16:28:29.102Z,99077.05
2022-11-05T16:31:00.104Z,99080.19
2022-11-05T16:33:48.663Z,99082.43
2022-11-05T16:36:16.299Z,99087.79
2022-11-05T16:38:43.857Z,99083.79
2022-11-05T16:41:19.136Z,99085.38
2022-11-05T16:43:57.383Z,99087.66
2022-11-05T16:46:26.822Z,99090.00
2022-11-05T16:48:54.478Z,99088.50
2022-11-05T16:51:27.192Z,99087.35
2022-11-05T16:53:55.121Z,99089.02
2022-11-05T16:56:22.788Z,99090.55
2022-11-05T16:58:50.373Z,99094.70
2022-11-05T17:01:23.054Z,99098.15
2022-11-05T17:03:52.019Z,99101.04
2022-11-05T17:06:21.007Z,99100.91
2022-11-05T17:08:48.772Z,99107.08
2022-11-05T17:11:17.868Z,99111.20
2022-11-05T17:13:45.545Z,99116.64
2022-11-05T17:16:14.728Z,99120.16
2022-11-05T17:18:42.433Z,99122.62
2022-11-05T17:21:10.625Z,99128.58
2022-11-05T17:23:38.122Z,99127.86
2022-11-05T17:26:07.940Z,99121.88
2022-11-05T17:28:35.800Z,99122.80
2022-11-05T17:31:04.902Z,99127.42
2022-11-05T17:33:32.556Z,99125.46
2022-11-05T17:36:00.526Z,99116.91
2022-11-05T17:38:28.086Z,99124.45
2022-11-05T17:40:55.747Z,99120.29
2022-11-05T17:43:23.206Z,99123.30
2022-11-05T17:45:52.263Z,99122.56
2022-11-05T17:48:20.574Z,99111.90
2022-11-05T17:50:49.295Z,99116.90
2022-11-05T17:53:18.779Z,99111.73
2022-11-05T17:55:46.935Z,99112.17
2022-11-05T17:58:14.498Z,99118.08
2022-11-05T18:00:42.496Z,99118.84
2022-11-05T18:03:11.199Z,99111.64
2022-11-05T18:05:40.353Z,99117.80
2022-11-05T18:08:08.216Z,99125.97
2022-11-05T18:10:39.585Z,99126.05
2022-11-05T18:13:07.336Z,99123.48
2022-11-05T18:15:35.912Z,99127.58
2022-11-05T18:18:03.368Z,99125.95
2022-11-05T18:20:30.929Z,99128.35
2022-11-05T18:22:58.696Z,99126.80
2022-11-05T18:25:26.168Z,99122.11
2022-11-05T18:27:53.603Z,99125.98
2022-11-05T18:30:21.101Z,99124.77
2022-11-05T18:32:48.726Z,99129.66
2022-11-05T18:35:16.178Z,99133.51
2022-11-05T18:37:43.859Z,99144.64
2022-11-05T18:40:12.016Z,99148.02
2022-11-05T18:42:39.679Z,99144.95
2022-11-05T18:45:07.956Z,99144.29
2022-11-05T18:47:35.511Z,99149.39
2022-11-05T18:50:03.200Z,99147.88
2022-11-05T18:52:32.273Z,99155.34
2022-11-05T18:55:00.043Z,99153.86
2022-11-05T18:57:28.013Z,99156.11
2022-11-05T18:59:55.463Z,99161.41
2022-11-05T19:02:23.101Z,99160.29
2022-11-05T19:05:14.424Z,99155.66
2022-11-05T19:07:41.584Z,99156.23
2022-11-05T19:10:09.351Z,99160.05
2022-11-05T19:12:36.810Z,99156.86
2022-11-05T19:15:04.845Z,99159.61
2022-11-05T19:17:32.952Z,99158.69
2022-11-05T19:20:00.816Z,99158.48
2022-11-05T19:22:28.484Z,99161.80
2022-11-05T19:24:55.936Z,99159.25
2022-11-05T19:27:23.801Z,99164.98
2022-11-05T19:29:53.613Z,99165.39
2022-11-05T19:32:23.770Z,99169.70
2022-11-05T19:34:51.292Z,99174.08
2022-11-05T19:37:19.569Z,99173.71
2022-11-05T19:39:47.130Z,99175.77
2022-11-05T19:42:14.605Z,99175.03
2022-11-05T19:44:43.479Z,99182.80
2022-11-05T19:47:11.049Z,99179.89
2022-11-05T19:49:38.806Z,99184.07
2022-11-05T19:52:07.209Z,99182.61
2022-11-05T19:54:36.375Z,99187.60
2022-11-05T19:57:03.943Z,99187.35
2022-11-05T19:59:31.491Z,99190.50
2022-11-05T20:01:59.104Z,99193.69
2022-11-05T20:04:26.713Z,99192.10
2022-11-05T20:06:54.179Z,99191.98
2022-11-05T20:09:23.490Z,99194.33
2022-11-05T20:11:52.841Z,99200.15
2022-11-05T20:14:20.332Z,99201.98
2022-11-05T20:16:48.407Z,99207.89
2022-11-05T20:19:17.946Z,99209.83
2022-11-05T20:21:45.672Z,99209.46
2022-11-05T20:24:17.495Z,99211.83
2022-11-05T20:26:49.805Z,99211.42
2022-11-05T20:29:17.365Z,99215.94
2022-11-05T20:31:44.815Z,99215.39
2022-11-05T20:34:12.274Z,99216.02
2022-11-05T20:36:39.931Z,99210.09
2022-11-05T20:39:07.800Z,99210.17
2022-11-05T20:41:35.255Z,99216.11
2022-11-05T20:44:02.712Z,99212.54
2022-11-05T20:46:30.380Z,99206.65
2022-11-05T20:48:57.832Z,99204.42
2022-11-05T20:51:26.032Z,99208.49
2022-11-05T20:53:57.974Z,99208.67
2022-11-05T20:56:30.293Z,99208.65
2022-11-05T20:58:58.785Z,99211.94
2022-11-05T21:01:27.965Z,99211.20
2022-11-05T21:03:55.578Z,99212.43
2022-11-05T21:06:23.141Z,99213.02
2022-11-05T21:08:51.214Z,99213.80
2022-11-05T21:11:19.284Z,99216.45
2022-11-05T21:13:47.045Z,99216.93
2022-11-05T21:16:18.000Z,99214.50
2022-11-05T21:18:46.578Z,99219.83
2022-11-05T21:21:16.628Z,99221.20
2022-11-05T21:23:44.143Z,99223.06
2022-11-05T21:26:14.056Z,99227.09
2022-11-05T21:28:42.025Z,99227.55
2022-11-05T21:31:09.605Z,99226.84
2022-11-05T21:33:37.376Z,99226.95
2022-11-05T21:36:10.916Z,99226.42
2022-11-05T21:38:38.507Z,99226.85
2022-11-05T21:41:06.278Z,99223.02
2022-11-05T21:43:33.871Z,99221.54
2022-11-05T21:46:02.547Z,99221.66
2022-11-05T21:48:30.393Z,99225.90
2022-11-05T21:51:16.593Z,99225.48
2022-11-05T21:54:02.889Z,99227.85
2022-11-05T21:56:49.081Z,99224.14
2022-11-05T21:59:40.603Z,99227.27
2022-11-05T22:02:09.047Z,99223.54
2022-11-05T22:04:40.459Z,99225.09
2022-11-05T22:07:08.700Z,99226.55
2022-11-05T22:09:36.470Z,99224.66
2022-11-05T22:12:04.448Z,99220.18
2022-11-05T22:14:32.096Z,99223.45
2022-11-05T22:16:59.765Z,99224.02
2022-11-05T22:19:27.316Z,99224.34
2022-11-05T22:21:54.773Z,99225.86
2022-11-05T22:24:23.827Z,99223.45
2022-11-05T22:26:51.325Z,99224.66
2022-11-05T22:29:18.779Z,99221.09
2022-11-05T22:31:46.338Z,99226.56
2022-11-05T22:34:13.805Z,99225.65
2022-11-05T22:36:41.271Z,99223.25
2022-11-05T22:39:08.819Z,99228.27
2022-11-05T22:41:36.319Z,99221.93
2022-11-05T22:44:04.341Z,99217.98
2022-11-05T22:46:32.420Z,99225.21
2022-11-05T22:49:03.279Z,99224.39
2022-11-05T22:51:32.239Z,99229.80
2022-11-05T22:54:00.017Z,99227.52
2022-11-05T22:56:29.765Z,99230.62
2022-11-05T22:58:57.491Z,99234.05
2022-11-05T23:01:25.609Z,99236.52
2022-11-05T23:03:55.482Z,99239.58
2022-11-05T23:06:43.612Z,99240.81
2022-11-05T23:09:38.097Z,99243.06
2022-11-05T23:12:08.015Z,99240.46
2022-11-05T23:14:37.019Z,99239.84
2022-11-05T23:17:23.201Z,99239.90
2022-11-05T23:20:09.404Z,99241.27
2022-11-05T23:22:55.702Z,99240.86
2022-11-05T23:25:23.897Z,99235.63
2022-11-05T23:27:52.624Z,99238.46
2022-11-05T23:30:25.259Z,99239.30
2022-11-05T23:32:54.842Z,99242.73
2022-11-05T23:35:42.266Z,99242.57
2022-11-05T23:38:28.360Z,99242.98
2022-11-05T23:41:19.477Z,99242.65
2022-11-05T23:44:05.767Z,99241.76
2022-11-05T23:46:52.073Z,99242.67
2022-11-05T23:49:19.730Z,99248.83
2022-11-05T23:51:47.184Z,99252.58
2022-11-05T23:54:14.848Z,99251.84
2022-11-05T23:56:42.305Z,99252.98
2022-11-05T23:59:09.761Z,99247.45
